Terminal Aerodrome Forecast
Issued by NWS

Home | Current Version | Previous Version | Graphics & Text | Print | Product List | Glossary On
Versions: 1 2 3 4 5 6 7 8 9 10 11 12 13 14 15 16 17 18 19
372
FTUS43 KICT 091720
TAFHUT
TAF
KHUT 091720Z 0918/1018 34017G24KT P6SM OVC060
     FM100200 VRB05KT P6SM BKN070
     FM101200 21007KT P6SM SKC=

USA.gov is the U.S. government's official web portal to all federal, state and local government web resources and services.